Time;durP1;ratioP1;P1;durP2;ratioP2;P2;SDS_P1;SDS_P2;PMS_P1;PMS_P2;Temp;Humidity;BMP_temperature;BMP_pressure;BME280_temperature;BME280_humidity;BME280_pressure;Samples;Min_cycle;Max_cycle;Signal;HPM_P1;HPM_P2
2021/10/24 07:36:28;;;;;;;15.63;7.75;;;;;;;;;;5051023;27;20555;-85
2021/10/24 07:38:56;;;;;;;10.10;7.35;;;;;;;;;;5061126;28;20230;-84
2021/10/24 07:41:24;;;;;;;11.60;8.18;;;;;;;;;;5058089;28;20233;-84
2021/10/24 07:43:52;;;;;;;11.68;9.07;;;;;;;;;;5037588;28;20232;-84
2021/10/24 07:46:21;;;;;;;9.65;8.63;;;;;;;;;;5033641;28;20725;-84
2021/10/24 07:48:54;;;;;;;14.80;10.15;;;;;;;;;;5035075;28;20923;-84
2021/10/24 07:51:22;;;;;;;18.67;9.75;;;;;;;;;;5034009;28;20233;-84
2021/10/24 07:53:52;;;;;;;12.93;8.70;;;;;;;;;;5032385;28;20230;-85
2021/10/24 07:56:21;;;;;;;12.95;8.63;;;;;;;;;;5031033;28;20250;-84
2021/10/24 07:58:49;;;;;;;11.60;9.13;;;;;;;;;;5041104;28;20223;-84
2021/10/24 08:01:18;;;;;;;13.48;9.20;;;;;;;;;;5041026;28;20231;-84
2021/10/24 08:25:43;;;;;;;12.95;7.47;;;;;;;;;;5070670;27;20566;-85
2021/10/24 08:28:11;;;;;;;13.30;7.80;;;;;;;;;;5074661;28;20225;-85
2021/10/24 08:30:39;;;;;;;8.52;6.45;;;;;;;;;;5075677;28;20232;-85
2021/10/24 08:33:08;;;;;;;10.18;6.82;;;;;;;;;;5040834;28;20699;-84
2021/10/24 08:35:36;;;;;;;9.90;7.10;;;;;;;;;;5041885;28;20772;-85
2021/10/24 08:38:05;;;;;;;8.60;6.55;;;;;;;;;;5056594;28;20224;-85
2021/10/24 08:40:41;;;;;;;17.48;7.68;;;;;;;;;;5042523;28;20236;-86
2021/10/24 08:43:17;;;;;;;9.88;6.25;;;;;;;;;;5057989;28;20682;-85
2021/10/24 08:45:46;;;;;;;15.52;7.60;;;;;;;;;;5028677;28;20679;-86
2021/10/24 08:48:17;;;;;;;13.57;8.00;;;;;;;;;;5052082;28;20601;-85
2021/10/24 08:50:48;;;;;;;12.10;8.55;;;;;;;;;;5041100;28;20233;-85
2021/10/24 08:53:20;;;;;;;8.18;6.25;;;;;;;;;;5056925;28;20854;-85
2021/10/24 08:55:49;;;;;;;14.48;7.18;;;;;;;;;;5052915;28;20763;-86
2021/10/24 08:58:19;;;;;;;10.80;6.60;;;;;;;;;;5041132;28;20226;-85
2021/10/24 09:00:49;;;;;;;11.65;6.85;;;;;;;;;;5051010;28;20228;-85
2021/10/24 09:03:19;;;;;;;9.02;6.40;;;;;;;;;;5045096;28;22167;-85
2021/10/24 09:05:48;;;;;;;7.90;5.50;;;;;;;;;;5042045;28;20687;-85
2021/10/24 09:08:18;;;;;;;10.23;6.88;;;;;;;;;;5056650;28;20230;-85
2021/10/24 09:10:48;;;;;;;8.73;5.70;;;;;;;;;;5058375;28;20228;-85
2021/10/24 09:13:17;;;;;;;18.77;6.80;;;;;;;;;;5057159;28;20475;-85
2021/10/24 09:15:51;;;;;;;9.43;7.00;;;;;;;;;;5050268;28;20465;-85
2021/10/24 09:18:20;;;;;;;11.40;6.63;;;;;;;;;;5026447;28;21230;-86
2021/10/24 09:20:54;;;;;;;17.43;6.00;;;;;;;;;;5055585;28;21025;-85
2021/10/24 09:23:27;;;;;;;11.73;6.90;;;;;;;;;;5030861;28;20483;-85
2021/10/24 09:25:56;;;;;;;9.87;6.40;;;;;;;;;;5041412;28;20233;-86
2021/10/24 09:28:26;;;;;;;10.57;6.23;;;;;;;;;;5056724;28;20468;-85
2021/10/24 09:31:02;;;;;;;12.37;7.20;;;;;;;;;;5004783;28;20483;-85
2021/10/24 09:33:44;;;;;;;8.40;6.23;;;;;;;;;;5017622;28;20515;-87
2021/10/24 09:36:15;;;;;;;6.27;4.97;;;;;;;;;;5030984;28;20482;-87
2021/10/24 09:38:44;;;;;;;11.20;6.37;;;;;;;;;;5052100;28;20480;-87
2021/10/24 09:41:12;;;;;;;9.40;6.30;;;;;;;;;;5038843;28;20522;-88
2021/10/24 09:43:42;;;;;;;11.87;5.83;;;;;;;;;;5030214;28;20475;-88
2021/10/24 09:46:15;;;;;;;12.20;6.40;;;;;;;;;;5024305;28;20480;-88
2021/10/24 09:48:45;;;;;;;8.03;5.70;;;;;;;;;;5033262;28;20503;-87
2021/10/24 09:51:16;;;;;;;7.00;5.40;;;;;;;;;;5027467;28;20477;-89
2021/10/24 09:53:46;;;;;;;8.30;5.90;;;;;;;;;;5029155;28;20483;-88
2021/10/24 09:56:15;;;;;;;11.90;5.93;;;;;;;;;;5033234;28;21203;-88
2021/10/24 09:58:44;;;;;;;11.23;5.70;;;;;;;;;;5032143;28;20460;-88
2021/10/24 10:01:18;;;;;;;8.67;5.13;;;;;;;;;;5020432;28;20554;-87
2021/10/24 10:03:47;;;;;;;10.53;4.73;;;;;;;;;;5033692;28;20483;-87
2021/10/24 10:06:17;;;;;;;4.53;4.03;;;;;;;;;;5040324;28;20523;-86
2021/10/24 10:08:45;;;;;;;5.83;4.33;;;;;;;;;;5014492;28;21150;-87
2021/10/24 10:11:15;;;;;;;8.37;4.50;;;;;;;;;;5031497;28;21028;-89
2021/10/24 10:13:45;;;;;;;4.70;4.30;;;;;;;;;;5028962;28;20471;-88
2021/10/24 10:16:29;;;;;;;7.27;4.40;;;;;;;;;;5019485;28;20483;-89
2021/10/24 10:19:02;;;;;;;6.57;4.40;;;;;;;;;;5027441;28;20833;-90
2021/10/24 10:21:32;;;;;;;4.33;3.70;;;;;;;;;;5025059;28;20470;-89
2021/10/24 10:24:01;;;;;;;8.30;4.67;;;;;;;;;;5025276;28;20477;-89
2021/10/24 10:26:33;;;;;;;5.53;4.33;;;;;;;;;;5017267;28;20496;-88
2021/10/24 10:29:02;;;;;;;8.63;4.90;;;;;;;;;;5017860;28;21217;-89
2021/10/24 10:31:32;;;;;;;10.27;4.50;;;;;;;;;;4991913;28;20489;-89
2021/10/24 10:34:02;;;;;;;5.17;4.27;;;;;;;;;;5020222;28;20500;-89
2021/10/24 10:36:48;;;;;;;11.67;4.37;;;;;;;;;;4999555;28;20486;-88
2021/10/24 10:39:35;;;;;;;7.40;4.57;;;;;;;;;;5014590;28;20488;-88
2021/10/24 10:42:41;;;;;;;5.10;3.20;;;;;;;;;;5002885;28;20628;-89
2021/10/24 10:45:36;;;;;;;6.43;4.70;;;;;;;;;;5004579;28;20472;-90
2021/10/24 10:48:07;;;;;;;4.67;4.20;;;;;;;;;;4993660;28;20544;-88
2021/10/24 10:50:43;;;;;;;7.87;4.00;;;;;;;;;;5016288;28;20874;-88
2021/10/24 10:53:12;;;;;;;4.87;3.70;;;;;;;;;;5021649;28;20484;-89
2021/10/24 10:56:14;;;;;;;5.03;3.33;;;;;;;;;;5023881;28;20474;-88
2021/10/24 10:58:43;;;;;;;5.30;4.23;;;;;;;;;;5032101;28;20474;-88
2021/10/24 11:01:18;;;;;;;6.93;3.57;;;;;;;;;;5031169;28;20481;-89
2021/10/24 11:03:49;;;;;;;3.57;3.27;;;;;;;;;;5017539;28;20920;-90
2021/10/24 11:06:36;;;;;;;7.10;3.60;;;;;;;;;;5026851;28;20506;-90
2021/10/24 11:09:05;;;;;;;3.63;2.50;;;;;;;;;;5029759;28;20447;-89
2021/10/24 11:11:52;;;;;;;5.43;2.90;;;;;;;;;;5020179;28;20472;-89
2021/10/24 11:14:41;;;;;;;4.30;3.10;;;;;;;;;;5022522;28;20453;-90
2021/10/24 11:17:09;;;;;;;6.90;3.90;;;;;;;;;;5024201;28;20493;-89
2021/10/24 11:19:51;;;;;;;4.40;3.50;;;;;;;;;;5025552;28;20457;-90
2021/10/24 11:22:20;;;;;;;5.40;3.20;;;;;;;;;;5027963;28;20869;-90
2021/10/24 11:24:50;;;;;;;3.33;3.03;;;;;;;;;;5030036;28;20488;-90
2021/10/24 11:27:19;;;;;;;6.07;2.20;;;;;;;;;;5019963;28;20473;-90
2021/10/24 11:29:48;;;;;;;4.60;3.03;;;;;;;;;;5020348;28;20470;-90
2021/10/24 11:32:18;;;;;;;6.80;3.43;;;;;;;;;;5025749;28;20485;-90
2021/10/24 11:34:46;;;;;;;3.83;3.03;;;;;;;;;;5020422;28;20460;-90
2021/10/24 11:37:16;;;;;;;4.20;2.30;;;;;;;;;;5026190;28;20546;-90
2021/10/24 11:39:48;;;;;;;5.90;2.83;;;;;;;;;;5040483;28;20467;-90
2021/10/24 11:42:19;;;;;;;5.57;3.03;;;;;;;;;;5019821;28;21159;-90
2021/10/24 11:44:47;;;;;;;3.03;2.27;;;;;;;;;;5009892;28;20467;-89
2021/10/24 11:47:18;;;;;;;3.57;2.60;;;;;;;;;;5009669;28;20853;-88
2021/10/24 11:49:47;;;;;;;4.77;2.50;;;;;;;;;;5037119;28;20484;-91
2021/10/24 11:52:24;;;;;;;3.60;2.97;;;;;;;;;;5037848;28;20478;-89
2021/10/24 11:55:06;;;;;;;4.30;3.07;;;;;;;;;;5034733;28;20496;-90
2021/10/24 12:22:08;;;;;;;9.10;6.00;;;36.80;40.20;;;;;;5064366;27;20621;-90
2021/10/24 12:24:57;;;;;;;17.47;9.47;;;36.80;40.00;;;;;;5048400;28;20478;-90
2021/10/24 12:27:30;;;;;;;3.47;3.17;;;36.80;41.00;;;;;;5034299;28;20960;-89
2021/10/24 12:30:03;;;;;;;5.63;4.03;;;36.80;40.90;;;;;;5033683;28;20487;-90
2021/10/24 12:32:31;;;;;;;7.07;4.00;;;36.90;39.50;;;;;;5020439;28;20490;-90
2021/10/24 12:35:06;;;;;;;6.30;3.73;;;36.50;40.60;;;;;;5026746;28;20468;-89
2021/10/24 12:37:38;;;;;;;4.33;2.93;;;34.80;41.40;;;;;;5036198;28;20470;-89
2021/10/24 12:40:17;;;;;;;3.70;3.40;;;30.80;45.80;;;;;;5059609;28;20484;-89
2021/10/24 12:43:00;;;;;;;4.23;3.07;;;26.10;53.20;;;;;;5056892;28;20466;-89
2021/10/24 12:45:28;;;;;;;4.30;3.30;;;26.00;53.20;;;;;;5044075;28;20459;-89
2021/10/24 12:47:56;;;;;;;2.87;2.67;;;23.10;58.80;;;;;;5053774;28;20502;-87
2021/10/24 12:50:31;;;;;;;4.00;3.63;;;21.10;64.70;;;;;;5058480;28;20470;-88
2021/10/24 12:53:03;;;;;;;5.57;3.10;;;19.50;69.40;;;;;;5042009;28;20482;-88
2021/10/24 12:55:31;;;;;;;4.73;3.37;;;18.30;72.90;;;;;;5037010;28;20482;-88
2021/10/24 12:58:00;;;;;;;4.53;3.27;;;17.40;75.10;;;;;;5046276;28;20472;-88
2021/10/24 13:00:28;;;;;;;4.10;3.20;;;16.90;77.60;;;;;;5045473;28;20996;-89
2021/10/24 13:02:56;;;;;;;4.90;3.40;;;16.60;79.50;;;;;;5046257;28;20484;-87
2021/10/24 13:05:25;;;;;;;3.93;3.30;;;16.30;79.60;;;;;;5048566;28;20547;-87
2021/10/24 13:07:54;;;;;;;3.80;3.33;;;16.00;82.10;;;;;;5042644;28;20480;-86
2021/10/24 13:10:23;;;;;;;6.40;3.60;;;15.80;82.60;;;;;;5050986;28;20487;-88
2021/10/24 13:12:51;;;;;;;5.13;3.07;;;15.60;82.90;;;;;;5046701;28;20494;-88
2021/10/24 13:15:19;;;;;;;5.43;3.67;;;15.40;83.60;;;;;;5043321;28;20474;-88
2021/10/24 13:17:47;;;;;;;4.13;3.83;;;15.20;84.20;;;;;;5050350;28;20472;-87
2021/10/24 13:20:16;;;;;;;3.60;3.20;;;15.10;86.50;;;;;;5052950;28;20516;-88
2021/10/24 13:22:57;;;;;;;4.10;3.40;;;15.10;86.60;;;;;;5046314;28;20837;-89
2021/10/24 13:25:28;;;;;;;4.60;3.60;;;15.00;87.10;;;;;;5046971;28;20468;-89
2021/10/24 13:27:57;;;;;;;3.77;3.47;;;15.00;86.90;;;;;;5049198;28;20480;-88
2021/10/24 13:30:28;;;;;;;4.40;3.57;;;15.00;86.60;;;;;;5057671;28;20470;-88
2021/10/24 13:32:56;;;;;;;3.83;3.37;;;15.00;86.80;;;;;;5045487;28;20494;-88
2021/10/24 13:35:25;;;;;;;5.40;3.77;;;14.90;87.70;;;;;;5035961;28;20847;-88
2021/10/24 13:37:53;;;;;;;4.20;3.37;;;14.90;88.20;;;;;;5035070;28;20484;-88
2021/10/24 13:40:21;;;;;;;5.47;3.87;;;14.90;88.60;;;;;;5031009;28;20460;-88
2021/10/24 13:42:50;;;;;;;4.30;3.23;;;14.90;88.20;;;;;;5034404;28;20479;-88
2021/10/24 13:45:19;;;;;;;4.33;3.23;;;14.80;88.40;;;;;;5031995;28;20460;-88
2021/10/24 13:47:47;;;;;;;4.70;3.07;;;14.80;88.90;;;;;;5028620;28;20471;-88
2021/10/24 13:50:15;;;;;;;4.47;3.03;;;14.80;88.30;;;;;;5045979;28;20467;-88
2021/10/24 13:52:43;;;;;;;4.73;3.20;;;14.80;87.30;;;;;;5056712;28;20468;-88
2021/10/24 13:55:11;;;;;;;4.00;3.30;;;14.80;88.20;;;;;;5055441;28;20460;-88
2021/10/24 13:57:40;;;;;;;3.90;3.07;;;14.70;89.50;;;;;;5048675;28;20469;-89
2021/10/24 14:00:10;;;;;;;4.30;2.80;;;14.80;89.40;;;;;;5056052;28;20999;-88
2021/10/24 14:02:46;;;;;;;3.60;2.83;;;14.80;88.70;;;;;;5047351;28;20475;-89
2021/10/24 14:05:15;;;;;;;10.20;3.20;;;14.80;88.50;;;;;;5044358;28;20538;-88
2021/10/24 14:07:43;;;;;;;2.77;2.50;;;14.80;88.60;;;;;;5057935;28;20467;-89
2021/10/24 14:10:13;;;;;;;3.13;2.83;;;14.80;89.50;;;;;;5045766;28;20484;-88
2021/10/24 14:12:41;;;;;;;2.60;2.40;;;14.70;88.80;;;;;;5046932;28;20512;-87
2021/10/24 14:15:11;;;;;;;5.90;2.20;;;14.70;89.40;;;;;;5052112;28;22289;-88
2021/10/24 14:17:39;;;;;;;2.27;2.00;;;14.70;89.30;;;;;;5047377;28;20463;-88
2021/10/24 14:20:09;;;;;;;3.63;2.60;;;14.70;90.20;;;;;;5052073;28;20475;-88
2021/10/24 14:22:37;;;;;;;2.93;2.63;;;14.70;91.10;;;;;;5054737;28;20467;-89
2021/10/24 14:25:06;;;;;;;2.73;2.30;;;14.60;90.70;;;;;;5051116;28;20546;-89
2021/10/24 14:27:34;;;;;;;3.00;2.20;;;14.60;90.20;;;;;;5050952;28;20471;-88
2021/10/24 14:30:05;;;;;;;4.93;2.40;;;14.60;90.80;;;;;;5049526;28;20923;-89
2021/10/24 14:32:35;;;;;;;2.33;2.03;;;14.80;88.60;;;;;;5043537;28;20472;-88
2021/10/24 14:35:03;;;;;;;5.70;2.60;;;14.80;88.60;;;;;;5047650;28;21022;-89
2021/10/24 14:37:31;;;;;;;2.43;2.27;;;14.80;87.90;;;;;;5052102;28;20486;-88
2021/10/24 14:39:59;;;;;;;4.20;2.60;;;14.80;88.20;;;;;;5055181;28;20473;-89
2021/10/24 14:42:27;;;;;;;2.63;2.47;;;14.60;88.70;;;;;;5048665;28;20472;-87
2021/10/24 14:44:55;;;;;;;3.73;2.60;;;14.40;90.10;;;;;;5051505;28;20460;-88
2021/10/24 14:47:23;;;;;;;5.77;2.43;;;14.30;91.20;;;;;;5053183;28;20459;-88
2021/10/24 14:49:55;;;;;;;3.70;2.13;;;14.30;91.20;;;;;;5050958;28;20532;-87
2021/10/24 14:52:23;;;;;;;4.87;2.40;;;14.20;92.30;;;;;;5052151;28;20469;-87
2021/10/24 14:54:52;;;;;;;4.00;2.60;;;14.20;91.20;;;;;;5031074;28;20466;-87
2021/10/24 14:57:20;;;;;;;4.10;2.80;;;14.20;91.50;;;;;;5014853;28;21064;-88
2021/10/24 14:59:48;;;;;;;4.83;2.70;;;14.10;92.50;;;;;;5049203;28;20455;-87
2021/10/24 15:02:16;;;;;;;3.80;2.57;;;14.00;91.90;;;;;;5044785;28;20460;-88
2021/10/24 15:04:44;;;;;;;2.30;2.10;;;14.00;90.90;;;;;;5045444;28;20483;-87
2021/10/24 15:07:14;;;;;;;3.10;2.40;;;14.10;90.10;;;;;;5049116;28;20452;-88
2021/10/24 15:09:42;;;;;;;2.70;2.50;;;14.10;90.10;;;;;;5048082;28;20478;-87
2021/10/24 15:12:30;;;;;;;6.07;3.10;;;14.00;90.40;;;;;;5054138;28;21319;-88
2021/10/24 15:14:58;;;;;;;3.40;2.60;;;14.00;91.50;;;;;;5053297;28;20467;-89
2021/10/24 15:17:28;;;;;;;2.60;2.40;;;13.90;92.90;;;;;;5056176;28;20486;-88
2021/10/24 15:22:43;;;;;;;2.60;2.40;;;14.00;92.70;;;;;;5041766;28;20996;-88
2021/10/24 15:25:11;;;;;;;13.47;5.20;;;14.00;92.40;;;;;;5026744;28;20474;-89
2021/10/24 15:27:39;;;;;;;7.90;5.70;;;14.10;92.50;;;;;;5016030;28;21073;-89
2021/10/24 15:30:08;;;;;;;3.87;3.40;;;14.10;92.30;;;;;;5019218;28;20478;-89
2021/10/24 15:32:36;;;;;;;9.10;3.10;;;14.10;92.30;;;;;;5023203;28;20850;-88
2021/10/24 15:35:04;;;;;;;3.30;3.00;;;14.00;92.80;;;;;;5022904;28;20469;-87
2021/10/24 15:37:32;;;;;;;6.40;3.47;;;13.90;93.00;;;;;;5030154;28;20475;-88
2021/10/24 15:40:05;;;;;;;4.53;3.60;;;13.80;92.60;;;;;;5032835;28;20836;-88
2021/10/24 15:42:34;;;;;;;5.10;4.60;;;13.60;93.10;;;;;;5042782;28;21112;-88
2021/10/24 15:45:02;;;;;;;10.77;5.10;;;13.40;93.60;;;;;;5039457;28;20481;-88
2021/10/24 15:47:29;;;;;;;8.03;6.10;;;13.20;94.00;;;;;;5045378;28;20463;-87
2021/10/24 15:49:57;;;;;;;7.77;6.97;;;13.00;94.70;;;;;;5051700;28;20466;-88
2021/10/24 15:52:26;;;;;;;7.53;5.67;;;12.90;95.30;;;;;;5043739;28;20854;-88
2021/10/24 15:54:54;;;;;;;6.13;4.20;;;12.80;96.00;;;;;;5049811;28;20473;-88
2021/10/24 15:57:24;;;;;;;5.03;3.73;;;12.70;96.70;;;;;;5048281;28;20467;-86
2021/10/24 15:59:52;;;;;;;7.47;4.13;;;12.70;96.70;;;;;;5038812;28;20477;-88
2021/10/24 16:02:20;;;;;;;6.00;4.10;;;12.90;97.30;;;;;;5036356;28;20486;-86
2021/10/24 16:04:48;;;;;;;4.40;3.73;;;12.80;97.60;;;;;;5029317;28;22081;-86
2021/10/24 16:07:16;;;;;;;5.47;4.47;;;12.60;98.50;;;;;;5027873;28;20494;-86
2021/10/24 16:09:44;;;;;;;11.67;6.43;;;12.30;99.80;;;;;;5031843;28;20461;-85
2021/10/24 16:12:12;;;;;;;6.83;4.90;;;12.10;99.80;;;;;;5039163;28;21032;-88
2021/10/24 16:14:41;;;;;;;9.00;6.30;;;11.80;99.80;;;;;;5056673;28;20478;-87
2021/10/24 16:17:09;;;;;;;5.53;4.93;;;11.60;99.80;;;;;;5038016;28;20471;-88
2021/10/24 16:19:37;;;;;;;5.37;4.87;;;11.40;99.80;;;;;;5050133;28;20482;-88
2021/10/24 16:22:05;;;;;;;6.80;5.43;;;11.20;99.80;;;;;;5043284;28;20836;-88
2021/10/24 16:24:33;;;;;;;7.27;5.00;;;11.20;99.80;;;;;;5051510;28;21233;-87
2021/10/24 16:27:01;;;;;;;5.80;4.70;;;11.10;99.80;;;;;;5027476;28;20483;-87
2021/10/24 16:29:29;;;;;;;12.53;4.50;;;11.00;99.80;;;;;;5021321;28;20478;-87
2021/10/24 16:31:58;;;;;;;8.40;5.67;;;10.80;99.80;;;;;;5025753;28;20481;-88
2021/10/24 16:34:26;;;;;;;9.30;5.17;;;10.80;99.80;;;;;;5006425;28;21035;-87
2021/10/24 16:36:56;;;;;;;5.50;4.30;;;10.70;99.80;;;;;;5023327;28;20513;-87
2021/10/24 16:39:24;;;;;;;5.20;4.70;;;10.60;99.80;;;;;;5043809;28;20473;-87
2021/10/24 16:41:53;;;;;;;11.83;5.20;;;10.50;99.80;;;;;;5028795;28;20496;-87
2021/10/24 16:44:21;;;;;;;4.50;4.10;;;10.30;99.80;;;;;;5010300;28;20477;-87
2021/10/24 16:46:49;;;;;;;5.93;4.60;;;10.20;99.80;;;;;;5011575;28;20480;-85
2021/10/24 16:49:18;;;;;;;10.20;3.60;;;10.10;99.80;;;;;;5008459;28;20477;-86
2021/10/24 16:51:46;;;;;;;2.93;2.73;;;10.00;99.80;;;;;;5024349;28;20480;-86
2021/10/24 16:54:15;;;;;;;3.50;3.20;;;9.90;99.80;;;;;;5031738;28;20493;-85
2021/10/24 16:56:43;;;;;;;3.47;3.10;;;9.80;99.80;;;;;;5026549;28;20573;-86
2021/10/24 16:59:11;;;;;;;4.00;2.87;;;9.80;99.80;;;;;;5032021;28;20480;-85
2021/10/24 17:01:39;;;;;;;3.93;3.50;;;9.80;99.80;;;;;;5012352;28;20481;-85
2021/10/24 17:04:07;;;;;;;4.23;3.90;;;9.80;99.80;;;;;;5003950;28;20477;-86
2021/10/24 17:06:37;;;;;;;3.50;3.10;;;9.80;99.80;;;;;;5023876;28;20475;-85
2021/10/24 17:09:05;;;;;;;5.23;4.20;;;9.70;99.80;;;;;;5037589;28;20462;-85
2021/10/24 17:11:33;;;;;;;4.27;3.37;;;9.70;99.80;;;;;;5034554;28;20475;-86
2021/10/24 17:14:16;;;;;;;6.20;3.70;;;9.70;99.80;;;;;;5032401;28;20513;-86
2021/10/24 17:16:44;;;;;;;5.27;4.77;;;9.60;99.80;;;;;;5026594;28;20545;-86
2021/10/24 17:19:12;;;;;;;6.03;3.70;;;9.60;99.80;;;;;;5039247;28;20476;-85
2021/10/24 17:21:42;;;;;;;6.10;4.60;;;9.60;99.80;;;;;;5026141;28;20464;-85
2021/10/24 17:24:10;;;;;;;4.53;4.10;;;9.60;99.80;;;;;;5027586;28;20477;-86
2021/10/24 17:26:38;;;;;;;7.80;4.17;;;9.50;99.80;;;;;;5033852;28;20996;-85
2021/10/24 17:29:06;;;;;;;4.90;4.50;;;9.50;99.80;;;;;;5040395;28;20469;-86
2021/10/24 17:31:35;;;;;;;5.13;4.70;;;9.50;99.80;;;;;;5022825;28;20478;-85
2021/10/24 17:34:04;;;;;;;6.70;5.10;;;9.50;99.80;;;;;;5019973;28;20506;-85
2021/10/24 17:36:32;;;;;;;6.87;5.40;;;9.50;99.80;;;;;;5019204;28;20457;-86
2021/10/24 17:39:04;;;;;;;6.07;4.90;;;9.50;99.80;;;;;;5033193;28;20479;-86
2021/10/24 17:41:39;;;;;;;7.50;5.93;;;9.40;99.80;;;;;;5025464;28;20468;-86
2021/10/24 17:44:26;;;;;;;6.80;6.13;;;9.40;99.80;;;;;;5016131;28;20483;-85
2021/10/24 17:46:57;;;;;;;11.00;5.60;;;9.30;99.80;;;;;;5015712;28;20465;-85
2021/10/24 17:49:25;;;;;;;8.67;5.90;;;9.30;99.80;;;;;;5007214;28;20486;-85
2021/10/24 17:51:53;;;;;;;7.00;5.80;;;9.30;99.80;;;;;;5045023;28;20503;-86
2021/10/24 17:54:23;;;;;;;6.30;5.67;;;9.20;99.80;;;;;;5019467;28;20472;-86
2021/10/24 17:56:56;;;;;;;6.03;5.43;;;9.20;99.80;;;;;;5042766;28;20477;-85
2021/10/24 17:59:24;;;;;;;8.30;5.10;;;9.20;99.80;;;;;;5024546;28;20555;-83
2021/10/24 18:01:52;;;;;;;6.40;4.50;;;9.10;99.80;;;;;;5000903;28;20471;-86
2021/10/24 18:04:28;;;;;;;6.63;5.67;;;9.10;99.80;;;;;;5023939;28;20570;-85
2021/10/24 18:07:09;;;;;;;8.93;4.93;;;9.00;99.80;;;;;;5026647;28;20477;-86
2021/10/24 18:09:39;;;;;;;7.93;5.30;;;9.00;99.80;;;;;;5032573;28;20551;-85
2021/10/24 18:12:07;;;;;;;6.87;5.70;;;9.00;99.80;;;;;;5032191;28;20835;-85
2021/10/24 18:14:35;;;;;;;5.83;5.10;;;9.00;99.80;;;;;;5020419;28;20481;-85
2021/10/24 18:17:07;;;;;;;6.80;5.13;;;8.90;99.80;;;;;;5019577;28;20475;-85
2021/10/24 18:19:35;;;;;;;6.93;5.40;;;9.00;99.80;;;;;;5013413;28;20469;-85
2021/10/24 18:22:04;;;;;;;7.43;5.53;;;8.80;99.80;;;;;;5027293;28;20477;-84
2021/10/24 18:24:33;;;;;;;6.20;4.60;;;8.80;99.80;;;;;;5032577;28;20482;-85
2021/10/24 18:27:02;;;;;;;5.87;5.10;;;8.70;99.80;;;;;;5023514;28;20484;-85
2021/10/24 18:29:30;;;;;;;9.63;6.23;;;8.70;99.80;;;;;;5019145;28;20476;-85
2021/10/24 18:31:58;;;;;;;8.90;4.93;;;8.70;99.80;;;;;;5030090;28;20481;-85
2021/10/24 18:34:26;;;;;;;5.33;4.83;;;8.70;99.80;;;;;;5027763;28;20524;-85
2021/10/24 18:36:54;;;;;;;7.00;5.50;;;8.70;99.80;;;;;;5027087;28;21076;-85
2021/10/24 18:39:23;;;;;;;12.60;5.30;;;8.70;99.80;;;;;;5028850;28;20883;-85
2021/10/24 18:41:53;;;;;;;7.13;5.40;;;8.70;99.80;;;;;;5018011;28;20488;-85
2021/10/24 18:44:23;;;;;;;5.67;4.73;;;8.70;99.80;;;;;;5033792;28;20476;-86
2021/10/24 18:46:51;;;;;;;11.97;6.00;;;8.70;99.80;;;;;;5024071;28;20520;-85
2021/10/24 18:49:19;;;;;;;29.50;14.47;;;8.70;99.80;;;;;;5007294;28;20478;-85
2021/10/24 18:51:47;;;;;;;22.23;14.23;;;8.60;99.80;;;;;;5013141;28;21002;-85
2021/10/24 18:54:16;;;;;;;20.30;12.33;;;8.50;99.80;;;;;;5032271;28;20474;-85
2021/10/24 18:56:44;;;;;;;20.83;14.17;;;8.50;99.80;;;;;;5033238;28;22958;-85
2021/10/24 18:59:12;;;;;;;9.70;7.10;;;8.40;99.80;;;;;;5029840;28;20510;-85
2021/10/24 19:01:41;;;;;;;5.63;5.03;;;8.40;99.80;;;;;;5024273;28;21423;-85
2021/10/24 19:04:10;;;;;;;8.10;5.60;;;8.30;99.80;;;;;;5033686;28;20495;-85
2021/10/24 19:06:38;;;;;;;6.30;4.93;;;8.20;99.80;;;;;;5036836;28;20481;-85
2021/10/24 19:09:07;;;;;;;9.23;6.07;;;8.10;99.80;;;;;;5039651;28;20997;-85
2021/10/24 19:11:35;;;;;;;8.10;5.93;;;8.00;99.80;;;;;;5052707;28;20475;-85
2021/10/24 19:14:05;;;;;;;7.70;6.50;;;7.80;99.80;;;;;;5049639;28;20467;-85
2021/10/24 19:16:36;;;;;;;9.07;6.60;;;7.70;99.80;;;;;;5042593;28;20907;-86
2021/10/24 19:19:05;;;;;;;9.67;6.63;;;7.70;99.80;;;;;;5049118;28;20474;-86
2021/10/24 19:21:34;;;;;;;8.37;5.90;;;7.50;99.80;;;;;;5031361;28;20889;-83
2021/10/24 19:24:06;;;;;;;10.90;6.10;;;7.50;99.80;;;;;;5026982;28;20510;-86
2021/10/24 19:26:34;;;;;;;7.40;5.73;;;7.50;99.80;;;;;;5029210;28;20519;-86
2021/10/24 19:29:03;;;;;;;9.53;7.10;;;7.50;99.80;;;;;;5026808;28;20471;-86
2021/10/24 19:31:31;;;;;;;8.90;7.27;;;7.40;99.80;;;;;;5038432;28;21025;-85
2021/10/24 19:33:59;;;;;;;12.83;8.20;;;7.50;99.80;;;;;;5008363;28;20484;-86
2021/10/24 19:36:28;;;;;;;18.33;12.10;;;7.50;99.80;;;;;;5036058;28;20552;-86
2021/10/24 19:39:02;;;;;;;20.53;11.93;;;7.60;99.80;;;;;;5028941;28;20494;-86
2021/10/24 19:41:35;;;;;;;13.00;9.50;;;7.60;99.80;;;;;;5041306;28;20470;-86
2021/10/24 19:44:04;;;;;;;15.50;10.50;;;7.60;99.80;;;;;;5025317;28;20590;-86
2021/10/24 19:46:34;;;;;;;13.60;11.77;;;7.60;99.80;;;;;;5039620;28;21177;-86
2021/10/24 19:49:05;;;;;;;45.93;25.83;;;7.60;99.80;;;;;;5028218;28;20470;-86
2021/10/24 19:51:34;;;;;;;39.37;24.27;;;7.60;99.80;;;;;;5037626;28;20552;-86
2021/10/24 19:54:02;;;;;;;36.93;21.43;;;7.60;99.80;;;;;;5051942;28;20564;-86
2021/10/24 19:56:34;;;;;;;40.03;22.63;;;7.50;99.80;;;;;;5027471;28;20485;-86
2021/10/24 19:59:03;;;;;;;58.33;28.73;;;7.50;99.80;;;;;;5011696;28;20556;-86
2021/10/24 20:01:33;;;;;;;89.03;35.90;;;7.50;99.80;;;;;;5016154;28;20479;-86
2021/10/24 20:04:02;;;;;;;86.13;35.87;;;7.50;99.80;;;;;;5035789;28;20824;-86
2021/10/24 20:06:31;;;;;;;89.30;36.43;;;7.50;99.80;;;;;;5026839;28;20499;-86
2021/10/24 20:09:01;;;;;;;73.57;32.50;;;7.50;99.80;;;;;;5040970;28;21066;-86
2021/10/24 20:11:29;;;;;;;80.73;31.90;;;7.50;99.80;;;;;;5034732;28;21073;-86
2021/10/24 20:13:57;;;;;;;62.30;28.70;;;7.50;99.80;;;;;;5031444;28;20542;-86
2021/10/24 20:16:26;;;;;;;72.80;30.30;;;7.50;99.80;;;;;;5042051;28;20490;-86
2021/10/24 20:18:55;;;;;;;27.83;16.40;;;7.50;99.80;;;;;;5041029;28;20480;-87
2021/10/24 20:21:24;;;;;;;20.23;14.17;;;7.50;99.80;;;;;;5027048;28;20487;-86
2021/10/24 20:23:52;;;;;;;20.57;11.73;;;7.50;99.80;;;;;;5046032;28;20481;-86
2021/10/24 20:26:21;;;;;;;33.20;20.67;;;7.50;99.80;;;;;;5045683;28;20481;-86
2021/10/24 20:28:49;;;;;;;27.83;18.30;;;7.40;99.80;;;;;;5042586;28;20480;-86
2021/10/24 20:31:17;;;;;;;13.63;9.13;;;7.40;99.80;;;;;;5036895;28;21017;-86
2021/10/24 20:33:46;;;;;;;16.60;11.10;;;7.40;99.80;;;;;;5026811;28;20503;-87
2021/10/24 20:36:18;;;;;;;16.13;10.60;;;7.40;99.80;;;;;;5033639;28;21045;-86
2021/10/24 20:38:47;;;;;;;20.00;14.03;;;7.40;99.80;;;;;;5039042;28;20482;-86
2021/10/24 20:41:15;;;;;;;23.33;16.00;;;7.40;99.80;;;;;;5045713;28;20500;-86
2021/10/24 20:43:45;;;;;;;20.33;13.80;;;7.40;99.80;;;;;;5034004;28;20475;-86
2021/10/24 20:46:17;;;;;;;17.70;13.47;;;7.40;99.80;;;;;;5044383;28;20464;-87
2021/10/24 20:48:45;;;;;;;36.47;22.83;;;7.40;99.80;;;;;;5039708;28;20459;-86
2021/10/24 20:51:14;;;;;;;16.97;11.43;;;7.40;99.80;;;;;;5038062;28;20467;-86
2021/10/24 20:53:42;;;;;;;11.87;8.27;;;7.30;99.80;;;;;;5047528;28;20479;-87
2021/10/24 20:56:10;;;;;;;13.87;9.20;;;7.20;99.80;;;;;;5047210;28;20489;-86
2021/10/24 20:58:40;;;;;;;16.60;9.67;;;7.10;99.80;;;;;;5047738;28;20478;-86
2021/10/24 21:01:10;;;;;;;10.37;8.20;;;7.00;99.80;;;;;;5045045;28;20471;-86
2021/10/24 21:03:39;;;;;;;22.87;8.80;;;7.00;99.80;;;;;;5034390;28;20666;-86
2021/10/24 21:06:08;;;;;;;12.23;9.00;;;6.90;99.80;;;;;;5056014;28;20462;-86
2021/10/24 21:08:36;;;;;;;13.83;8.70;;;6.90;99.80;;;;;;5051314;28;20463;-86
2021/10/24 21:11:04;;;;;;;9.77;8.70;;;6.90;99.80;;;;;;5037769;28;20471;-87
2021/10/24 21:13:32;;;;;;;12.03;10.43;;;6.80;99.80;;;;;;5039965;28;20478;-86
2021/10/24 21:16:01;;;;;;;16.17;11.43;;;6.80;99.80;;;;;;5031020;28;20523;-85
2021/10/24 21:18:30;;;;;;;20.00;11.40;;;6.80;99.80;;;;;;5032171;28;20685;-86
2021/10/24 21:20:58;;;;;;;12.87;8.70;;;6.80;99.80;;;;;;5041961;28;20477;-85
2021/10/24 21:23:26;;;;;;;13.43;8.47;;;6.70;99.80;;;;;;5025148;28;20496;-86
2021/10/24 21:25:54;;;;;;;13.40;9.25;;;6.70;99.80;;;;;;5049556;28;20988;-86
2021/10/24 21:28:22;;;;;;;12.63;9.57;;;6.70;99.80;;;;;;5029272;28;20213;-86
2021/10/24 21:30:50;;;;;;;14.63;10.10;;;6.60;99.80;;;;;;5038290;28;20493;-86
2021/10/24 21:33:18;;;;;;;10.98;8.75;;;6.60;99.80;;;;;;5040835;28;20997;-86
2021/10/24 21:35:47;;;;;;;17.53;9.37;;;6.60;99.80;;;;;;5049520;28;20229;-86
2021/10/24 21:38:15;;;;;;;11.47;9.67;;;6.70;99.80;;;;;;5036830;28;20468;-86
2021/10/24 21:40:44;;;;;;;18.90;12.07;;;6.70;99.80;;;;;;5044148;28;20893;-85
2021/10/24 21:43:12;;;;;;;10.07;8.07;;;6.70;99.80;;;;;;5050143;28;20463;-85
2021/10/24 21:45:40;;;;;;;10.07;7.67;;;6.80;99.80;;;;;;5050329;28;20476;-85
2021/10/24 21:48:08;;;;;;;10.13;8.17;;;6.80;99.80;;;;;;5028116;28;20467;-85
2021/10/24 21:50:37;;;;;;;13.07;8.70;;;6.70;99.80;;;;;;5040006;28;20467;-85
2021/10/24 21:53:06;;;;;;;9.47;7.83;;;6.70;99.80;;;;;;5037697;28;20471;-85
2021/10/24 21:55:34;;;;;;;9.73;7.00;;;6.70;99.80;;;;;;5039274;28;20486;-85
2021/10/24 21:58:02;;;;;;;7.83;6.60;;;6.70;99.80;;;;;;5044036;28;20469;-85